createdAt,value
2019-05-11T00:00:12.106Z,72.30
2019-05-11T00:00:46.848Z,69.42
2019-05-11T00:01:21.512Z,72.58
2019-05-11T00:01:56.227Z,77.90
2019-05-11T00:02:30.427Z,70.03
2019-05-11T00:03:04.931Z,61.02
2019-05-11T00:03:39.440Z,69.07
2019-05-11T00:04:13.929Z,75.20
2019-05-11T00:04:48.361Z,82.55
2019-05-11T00:05:23.176Z,67.17
2019-05-11T00:05:57.695Z,71.20
2019-05-11T00:06:32.302Z,66.00
2019-05-11T00:07:06.458Z,82.88
2019-05-11T00:07:40.942Z,85.10
2019-05-11T00:08:15.573Z,73.50
2019-05-11T00:08:50.241Z,74.58
2019-05-11T00:09:25.167Z,73.10
2019-05-11T00:09:59.671Z,93.70
2019-05-11T00:10:34.225Z,90.30
2019-05-11T00:11:08.958Z,95.32
2019-05-11T00:11:43.197Z,82.45
2019-05-11T00:12:17.796Z,94.92
2019-05-11T00:12:52.740Z,98.78
2019-05-11T00:13:27.426Z,96.57
2019-05-11T00:14:01.722Z,95.12
2019-05-11T00:14:36.360Z,89.42
2019-05-11T00:15:11.324Z,79.55
2019-05-11T00:15:45.969Z,85.55
2019-05-11T00:16:20.168Z,86.63
2019-05-11T00:16:54.702Z,85.47
2019-05-11T00:17:29.369Z,92.62
2019-05-11T00:18:04.138Z,93.62
2019-05-11T00:18:38.453Z,79.10
2019-05-11T00:19:12.938Z,72.72
2019-05-11T00:19:47.611Z,73.85
2019-05-11T00:20:22.359Z,70.97
2019-05-11T00:20:56.523Z,72.40
2019-05-11T00:21:31.289Z,92.70
2019-05-11T00:22:06.059Z,91.87
2019-05-11T00:22:40.476Z,81.12
2019-05-11T00:23:14.685Z,79.40
2019-05-11T00:23:49.327Z,87.12
2019-05-11T00:24:24.054Z,96.78
2019-05-11T00:24:58.593Z,86.50
2019-05-11T00:25:32.808Z,87.70
2019-05-11T00:26:07.310Z,90.47
2019-05-11T00:26:41.857Z,84.40
2019-05-11T00:27:16.356Z,74.92
2019-05-11T00:27:50.527Z,70.22
2019-05-11T00:28:25.279Z,71.10
2019-05-11T00:28:59.891Z,82.22
2019-05-11T00:29:34.409Z,80.38
2019-05-11T00:30:09.283Z,76.95
2019-05-11T00:30:44.135Z,72.00
2019-05-11T00:31:18.576Z,85.38
2019-05-11T00:31:53.067Z,90.67
2019-05-11T00:32:27.327Z,89.72
2019-05-11T00:33:01.994Z,100.20
2019-05-11T00:33:36.562Z,86.72
2019-05-11T00:34:11.189Z,82.05
2019-05-11T00:34:45.586Z,95.42
2019-05-11T00:35:20.097Z,76.70
2019-05-11T00:35:54.619Z,82.27
2019-05-11T00:36:29.309Z,87.72
2019-05-11T00:37:03.561Z,95.15
2019-05-11T00:37:38.136Z,82.57
2019-05-11T00:38:12.849Z,97.40
2019-05-11T00:38:47.380Z,94.85
2019-05-11T00:39:21.767Z,85.42
2019-05-11T00:39:56.169Z,85.47
2019-05-11T00:40:30.731Z,80.32
2019-05-11T00:41:05.503Z,79.90
2019-05-11T00:41:39.640Z,76.00
2019-05-11T00:42:14.127Z,78.95
2019-05-11T00:42:48.853Z,85.90
2019-05-11T00:43:23.503Z,75.75
2019-05-11T00:43:57.627Z,72.37
2019-05-11T00:44:32.160Z,82.27
2019-05-11T00:45:06.992Z,72.22
2019-05-11T00:45:41.452Z,71.02
2019-05-11T00:46:15.718Z,73.67
2019-05-11T00:46:50.380Z,62.65
2019-05-11T00:47:25.049Z,67.42
2019-05-11T00:47:59.603Z,77.25
2019-05-11T00:48:33.886Z,82.33
2019-05-11T00:49:08.580Z,75.55
2019-05-11T00:49:43.109Z,76.10
2019-05-11T00:50:17.696Z,77.20
2019-05-11T00:50:51.778Z,71.45
2019-05-11T00:51:26.449Z,81.78
2019-05-11T00:52:01.049Z,77.85
2019-05-11T00:52:35.679Z,74.72
2019-05-11T00:53:09.988Z,73.75
2019-05-11T00:53:44.449Z,73.70
2019-05-11T00:54:19.008Z,77.65
2019-05-11T00:54:53.607Z,79.55
2019-05-11T00:55:27.928Z,79.15
2019-05-11T00:56:02.841Z,90.30
2019-05-11T00:56:37.336Z,90.92
2019-05-11T00:57:11.748Z,93.87
2019-05-11T00:57:46.450Z,96.00
2019-05-11T00:58:21.096Z,93.42
2019-05-11T00:58:55.610Z,101.50
2019-05-11T00:59:30.337Z,90.87
2019-05-11T01:00:05.314Z,85.35
2019-05-11T01:00:39.930Z,87.02
2019-05-11T01:01:14.440Z,75.28
2019-05-11T01:01:49.111Z,100.72
2019-05-11T01:02:23.528Z,108.10
2019-05-11T01:02:58.358Z,88.05
2019-05-11T01:03:32.928Z,92.27
2019-05-11T01:04:07.697Z,100.18
2019-05-11T01:04:41.975Z,86.12
2019-05-11T01:05:16.628Z,90.17
2019-05-11T01:05:51.234Z,86.37
2019-05-11T01:06:25.963Z,101.85
2019-05-11T01:07:00.181Z,103.72
2019-05-11T01:07:34.776Z,110.92
2019-05-11T01:08:09.403Z,100.15
2019-05-11T01:08:43.950Z,122.15
2019-05-11T01:09:18.175Z,115.47
2019-05-11T01:09:52.886Z,129.90
2019-05-11T01:10:41.130Z,130.52
2019-05-11T01:11:03.927Z,131.85
2019-05-11T01:11:38.150Z,128.90
2019-05-11T01:12:12.664Z,130.12
2019-05-11T01:12:47.390Z,136.97
2019-05-11T01:13:22.217Z,124.78
2019-05-11T01:13:56.367Z,131.30
2019-05-11T01:14:31.092Z,125.25
2019-05-11T01:15:06.420Z,117.15
2019-05-11T01:15:41.047Z,110.48
2019-05-11T01:16:15.525Z,89.45
2019-05-11T01:16:50.167Z,93.85
2019-05-11T01:17:24.738Z,113.85
2019-05-11T01:17:59.408Z,131.87
2019-05-11T01:18:33.607Z,130.63
2019-05-11T01:19:08.254Z,128.57
2019-05-11T01:19:43.014Z,125.62
2019-05-11T01:20:18.752Z,125.58
2019-05-11T01:20:53.019Z,128.27
2019-05-11T01:21:27.549Z,111.15
2019-05-11T01:22:02.273Z,124.33
2019-05-11T01:22:36.737Z,110.97
2019-05-11T01:23:10.859Z,125.90
2019-05-11T01:23:45.560Z,127.12
2019-05-11T01:24:20.149Z,132.50
2019-05-11T01:24:54.589Z,109.85
2019-05-11T01:25:28.723Z,125.78
2019-05-11T01:26:03.397Z,127.67
2019-05-11T01:26:37.897Z,115.80
2019-05-11T01:27:12.457Z,121.80
2019-05-11T01:27:46.919Z,133.50
2019-05-11T01:28:21.440Z,132.18
2019-05-11T01:28:56.110Z,137.03
2019-05-11T01:29:30.650Z,147.05
2019-05-11T01:30:05.519Z,118.82
2019-05-11T01:30:40.109Z,141.82
2019-05-11T01:31:14.647Z,119.40
2019-05-11T01:31:49.227Z,119.67
2019-05-11T01:32:23.478Z,126.65
2019-05-11T01:32:57.941Z,113.52
2019-05-11T01:33:32.469Z,107.92
2019-05-11T01:34:07.384Z,107.03
2019-05-11T01:34:41.552Z,112.05
2019-05-11T01:35:16.329Z,138.52
2019-05-11T01:35:51.346Z,135.70
2019-05-11T01:36:26.198Z,113.10
2019-05-11T01:37:00.326Z,109.72
2019-05-11T01:37:34.832Z,108.72
2019-05-11T01:38:09.684Z,102.02
2019-05-11T01:38:44.263Z,123.45
2019-05-11T01:39:18.581Z,111.90
2019-05-11T01:39:53.154Z,116.73
2019-05-11T01:40:27.849Z,106.60
2019-05-11T01:41:02.881Z,125.62
2019-05-11T01:41:36.974Z,107.30
2019-05-11T01:42:11.761Z,117.28
2019-05-11T01:42:46.324Z,128.42
2019-05-11T01:43:20.835Z,116.50
2019-05-11T01:43:55.160Z,100.05
2019-05-11T01:44:29.759Z,117.08
2019-05-11T01:45:04.824Z,101.05
2019-05-11T01:45:39.259Z,98.42
2019-05-11T01:46:13.496Z,96.32
2019-05-11T01:46:47.998Z,103.60
2019-05-11T01:47:22.642Z,103.10
2019-05-11T01:47:57.236Z,106.95
2019-05-11T01:48:31.448Z,99.20
2019-05-11T01:49:06.328Z,93.87
2019-05-11T01:49:40.780Z,91.40
2019-05-11T01:50:15.580Z,79.82
2019-05-11T01:50:49.794Z,89.67
2019-05-11T01:51:24.392Z,106.60
2019-05-11T01:51:58.944Z,128.42
2019-05-11T01:52:33.395Z,138.72
2019-05-11T01:53:07.610Z,126.90
2019-05-11T01:53:42.151Z,108.57
2019-05-11T01:54:16.727Z,129.47
2019-05-11T01:54:51.224Z,106.10
2019-05-11T01:55:25.607Z,116.70
2019-05-11T01:56:00.282Z,180.30
2019-05-11T01:56:34.751Z,134.72
2019-05-11T01:57:09.598Z,123.00
2019-05-11T01:57:43.883Z,133.65
2019-05-11T01:58:18.418Z,156.78
2019-05-11T01:58:52.900Z,118.85
2019-05-11T01:59:27.720Z,107.17
2019-05-11T02:00:01.872Z,113.77
2019-05-11T02:00:36.365Z,116.93
2019-05-11T02:01:10.953Z,99.55
2019-05-11T02:01:45.886Z,99.72
2019-05-11T02:02:19.963Z,90.77
2019-05-11T02:02:54.613Z,99.07
2019-05-11T02:03:29.349Z,91.85
2019-05-11T02:04:03.932Z,84.95
2019-05-11T02:04:37.958Z,91.47
2019-05-11T02:05:31.448Z,106.85
2019-05-11T02:06:06.462Z,87.90
2019-05-11T02:06:40.626Z,79.07
2019-05-11T02:07:15.174Z,103.62
2019-05-11T02:07:49.886Z,103.47
2019-05-11T02:08:24.466Z,103.55
2019-05-11T02:08:59.018Z,102.85
2019-05-11T02:09:33.535Z,108.40
2019-05-11T02:10:08.543Z,107.83
2019-05-11T02:10:43.057Z,108.70
2019-05-11T02:11:17.197Z,105.03
2019-05-11T02:11:51.856Z,104.78
2019-05-11T02:12:26.575Z,97.02
2019-05-11T02:13:01.200Z,84.32
2019-05-11T02:13:35.389Z,86.97
2019-05-11T02:14:10.125Z,105.03
2019-05-11T02:14:44.922Z,100.60
2019-05-11T02:15:19.526Z,90.35
2019-05-11T02:15:53.804Z,95.05
2019-05-11T02:16:28.505Z,112.08
2019-05-11T02:17:02.973Z,100.90
2019-05-11T02:17:37.667Z,103.30
2019-05-11T02:18:11.754Z,100.20
2019-05-11T02:18:46.328Z,81.85
2019-05-11T02:19:20.868Z,90.05
2019-05-11T02:19:55.356Z,89.15
2019-05-11T02:20:29.917Z,98.00
2019-05-11T02:21:04.562Z,74.75
2019-05-11T02:21:39.026Z,72.20
2019-05-11T02:22:13.638Z,84.35
2019-05-11T02:22:47.786Z,71.37
2019-05-11T02:23:22.343Z,72.27
2019-05-11T02:23:56.846Z,76.37
2019-05-11T02:24:31.567Z,80.90
2019-05-11T02:25:06.297Z,96.28
2019-05-11T02:25:40.816Z,100.25
2019-05-11T02:26:15.325Z,100.05
2019-05-11T02:26:49.748Z,107.15
2019-05-11T02:27:24.012Z,91.47
2019-05-11T02:27:58.742Z,96.20
2019-05-11T02:28:33.223Z,97.50
2019-05-11T02:29:07.848Z,101.87
2019-05-11T02:29:42.225Z,91.92
2019-05-11T02:30:17.738Z,88.58
2019-05-11T02:30:52.300Z,79.32
2019-05-11T02:31:26.936Z,91.97
2019-05-11T02:32:01.208Z,97.25
2019-05-11T02:32:35.706Z,97.42
2019-05-11T02:33:10.321Z,92.25
2019-05-11T02:33:45.144Z,99.67
2019-05-11T02:34:19.279Z,77.65
2019-05-11T02:34:53.736Z,109.00
2019-05-11T02:35:28.380Z,110.88
2019-05-11T02:36:03.022Z,101.20
2019-05-11T02:36:37.362Z,125.92
2019-05-11T02:37:11.866Z,96.80
2019-05-11T02:37:46.373Z,108.40
2019-05-11T02:38:20.910Z,103.50
2019-05-11T02:38:55.120Z,92.55
2019-05-11T02:39:29.827Z,92.37
2019-05-11T02:40:05.442Z,111.22
2019-05-11T02:40:40.007Z,99.80
2019-05-11T02:41:14.247Z,90.20
2019-05-11T02:41:48.941Z,91.00
2019-05-11T02:42:23.521Z,86.50
2019-05-11T02:42:58.118Z,101.65
2019-05-11T02:43:32.515Z,95.75
2019-05-11T02:44:07.269Z,96.37
2019-05-11T02:44:41.758Z,95.07
2019-05-11T02:45:19.728Z,94.90
2019-05-11T02:45:53.843Z,100.75
2019-05-11T02:46:28.561Z,99.62
2019-05-11T02:47:02.985Z,96.60
2019-05-11T02:47:37.554Z,93.27
2019-05-11T02:48:12.139Z,91.28
2019-05-11T02:48:46.873Z,95.60
2019-05-11T02:49:21.389Z,111.50
2019-05-11T02:49:55.907Z,107.92
2019-05-11T02:50:30.458Z,97.95
2019-05-11T02:51:05.265Z,118.40
2019-05-11T02:51:40.657Z,78.07
2019-05-11T02:52:15.694Z,87.20
2019-05-11T02:52:50.275Z,74.12
2019-05-11T02:53:25.520Z,71.30
2019-05-11T02:54:01.883Z,72.05
2019-05-11T02:54:36.828Z,66.12
2019-05-11T02:55:11.256Z,72.55
2019-05-11T02:55:48.122Z,76.30
2019-05-11T02:56:22.660Z,70.35
2019-05-11T02:56:57.229Z,78.00
2019-05-11T02:57:31.621Z,82.82
2019-05-11T02:58:07.466Z,70.32
2019-05-11T02:58:42.875Z,70.95
2019-05-11T02:59:17.326Z,73.62
2019-05-11T02:59:51.664Z,70.83
2019-05-11T03:00:37.567Z,75.25
2019-05-11T03:01:12.254Z,81.28
2019-05-11T03:01:46.919Z,79.07
2019-05-11T03:02:21.018Z,91.00
2019-05-11T03:02:55.573Z,85.67
2019-05-11T03:03:30.157Z,83.47
2019-05-11T03:04:05.062Z,74.07
2019-05-11T03:04:39.203Z,71.22
2019-05-11T03:05:13.759Z,93.37
2019-05-11T03:05:48.386Z,99.52
2019-05-11T03:06:22.834Z,100.33
2019-05-11T03:06:56.938Z,81.35
2019-05-11T03:07:31.556Z,84.35
2019-05-11T03:08:06.826Z,101.20
2019-05-11T03:08:41.415Z,94.05
2019-05-11T03:09:15.502Z,79.05
2019-05-11T03:09:50.216Z,69.07
2019-05-11T03:10:24.714Z,87.72
2019-05-11T03:10:59.232Z,82.17
2019-05-11T03:11:33.361Z,104.65
2019-05-11T03:12:08.011Z,90.80
2019-05-11T03:12:42.636Z,79.60
2019-05-11T03:13:17.266Z,84.07
2019-05-11T03:13:51.367Z,88.67
2019-05-11T03:14:26.051Z,66.00
2019-05-11T03:15:00.629Z,75.37
2019-05-11T03:15:35.236Z,76.80
2019-05-11T03:16:09.575Z,85.45
2019-05-11T03:16:44.254Z,85.97
2019-05-11T03:17:23.588Z,72.25
2019-05-11T03:17:59.088Z,133.10
2019-05-11T03:18:33.551Z,103.75
2019-05-11T03:19:08.372Z,100.65
2019-05-11T03:19:42.896Z,121.97
2019-05-11T03:20:17.695Z,115.62
2019-05-11T03:20:52.114Z,96.72
2019-05-11T03:21:26.886Z,70.72
2019-05-11T03:22:01.441Z,81.15
2019-05-11T03:22:36.286Z,77.42
2019-05-11T03:23:10.413Z,80.25
2019-05-11T03:23:45.156Z,83.60
2019-05-11T03:24:23.905Z,82.27
2019-05-11T03:24:55.908Z,73.33
2019-05-11T03:25:30.175Z,74.00
2019-05-11T03:26:06.056Z,71.72
2019-05-11T03:26:40.996Z,78.33
2019-05-11T03:27:15.567Z,87.12
2019-05-11T03:27:50.004Z,82.08
2019-05-11T03:28:24.519Z,70.42
2019-05-11T03:28:58.975Z,89.30
2019-05-11T03:29:33.395Z,84.62
2019-05-11T03:30:09.164Z,74.60
2019-05-11T03:30:43.657Z,73.47
2019-05-11T03:31:18.253Z,76.77
2019-05-11T03:31:52.797Z,96.50
2019-05-11T03:32:27.067Z,89.62
2019-05-11T03:33:01.813Z,90.90
2019-05-11T03:33:36.313Z,103.67
2019-05-11T03:34:11.168Z,94.58
2019-05-11T03:34:45.563Z,95.67
2019-05-11T03:35:20.154Z,86.28
2019-05-11T03:35:54.873Z,92.47
2019-05-11T03:36:29.654Z,92.10
2019-05-11T03:37:04.908Z,89.40
2019-05-11T03:37:39.415Z,93.52
2019-05-11T03:38:13.945Z,87.20
2019-05-11T03:38:48.505Z,87.50
2019-05-11T03:39:23.144Z,81.90
2019-05-11T03:39:57.771Z,74.77
2019-05-11T03:40:32.464Z,96.55
2019-05-11T03:41:07.295Z,90.72
2019-05-11T03:41:41.386Z,94.20
2019-05-11T03:42:15.907Z,89.45
2019-05-11T03:42:50.497Z,99.13
2019-05-11T03:43:25.238Z,88.97
2019-05-11T03:43:59.350Z,75.92
2019-05-11T03:44:34.151Z,82.25
2019-05-11T03:45:09.268Z,95.05
2019-05-11T03:45:43.988Z,81.57
2019-05-11T03:46:18.177Z,84.47
2019-05-11T03:46:52.878Z,85.28
2019-05-11T03:47:27.806Z,82.35
2019-05-11T03:48:02.326Z,80.03
2019-05-11T03:48:36.466Z,87.33
2019-05-11T03:49:11.025Z,77.15
2019-05-11T03:49:45.747Z,76.33
2019-05-11T03:50:20.323Z,75.47
2019-05-11T03:50:54.662Z,72.78
2019-05-11T03:51:29.153Z,72.35
2019-05-11T03:52:03.643Z,94.40
2019-05-11T03:52:38.111Z,88.33
2019-05-11T03:53:12.406Z,83.20
2019-05-11T03:53:46.890Z,72.30
2019-05-11T03:54:21.432Z,72.10
2019-05-11T03:54:56.035Z,73.85
2019-05-11T03:55:30.405Z,70.52
2019-05-11T03:56:05.183Z,73.70
2019-05-11T03:56:39.743Z,73.52
2019-05-11T03:57:14.194Z,73.97
2019-05-11T03:57:48.667Z,68.87
2019-05-11T03:58:26.181Z,86.08
2019-05-11T03:58:59.255Z,85.25
2019-05-11T03:59:33.726Z,77.35
2019-05-11T04:00:08.948Z,87.75
2019-05-11T04:00:43.402Z,94.52
2019-05-11T04:01:17.826Z,90.28
2019-05-11T04:01:52.324Z,96.75
2019-05-11T04:02:26.982Z,83.67
2019-05-11T04:03:01.502Z,80.45
2019-05-11T04:03:36.219Z,88.25
2019-05-11T04:04:10.821Z,91.60
2019-05-11T04:04:45.031Z,84.58
2019-05-11T04:05:19.505Z,86.40
2019-05-11T04:05:54.171Z,74.77
2019-05-11T04:06:28.846Z,73.40
2019-05-11T04:07:03.166Z,78.62
2019-05-11T04:07:37.760Z,72.70
2019-05-11T04:08:12.609Z,67.92
2019-05-11T04:08:47.305Z,61.00
2019-05-11T04:09:21.510Z,67.55
2019-05-11T04:09:56.005Z,62.78
2019-05-11T04:10:30.638Z,65.83
2019-05-11T04:11:05.234Z,64.07
2019-05-11T04:11:39.325Z,65.57
2019-05-11T04:12:32.878Z,62.67
2019-05-11T04:12:50.272Z,64.82
2019-05-11T04:13:25.989Z,69.05
2019-05-11T04:14:00.154Z,74.58
2019-05-11T04:14:34.780Z,69.22
2019-05-11T04:15:10.093Z,71.60
2019-05-11T04:15:44.550Z,70.75
2019-05-11T04:16:18.790Z,66.72
2019-05-11T04:16:53.170Z,61.50
2019-05-11T04:17:27.775Z,58.90
2019-05-11T04:18:02.262Z,63.33
2019-05-11T04:18:36.292Z,65.50
2019-05-11T04:19:10.955Z,54.15
2019-05-11T04:19:45.636Z,54.30
2019-05-11T04:20:20.318Z,61.42
2019-05-11T04:20:54.556Z,61.45
2019-05-11T04:21:29.208Z,60.05
2019-05-11T04:22:03.839Z,53.70
2019-05-11T04:22:38.488Z,57.38
2019-05-11T04:23:12.800Z,62.62
2019-05-11T04:23:47.419Z,60.98
2019-05-11T04:24:22.326Z,63.08
2019-05-11T04:24:56.989Z,59.90
2019-05-11T04:25:31.072Z,62.70
2019-05-11T04:26:05.948Z,59.80
2019-05-11T04:26:40.510Z,58.78
2019-05-11T04:27:19.383Z,59.98
2019-05-11T04:27:51.116Z,56.80
2019-05-11T04:28:25.798Z,57.27
2019-05-11T04:29:00.261Z,57.78
2019-05-11T04:29:34.990Z,58.15
2019-05-11T04:30:10.254Z,58.33
2019-05-11T04:30:46.312Z,56.75
2019-05-11T04:31:21.186Z,60.65
2019-05-11T04:31:55.799Z,63.95
2019-05-11T04:32:30.140Z,61.30
2019-05-11T04:33:05.345Z,57.98
2019-05-11T04:33:39.998Z,56.75
2019-05-11T04:34:14.820Z,57.25
2019-05-11T04:34:49.078Z,58.73
2019-05-11T04:35:23.708Z,59.73
2019-05-11T04:35:58.124Z,60.60
2019-05-11T04:36:32.869Z,59.15
2019-05-11T04:37:07.050Z,59.30
2019-05-11T04:37:41.570Z,58.17
2019-05-11T04:38:16.020Z,58.35
2019-05-11T04:38:50.540Z,57.27
2019-05-11T04:39:24.842Z,59.13
2019-05-11T04:39:59.290Z,59.40
2019-05-11T04:40:33.959Z,60.90
2019-05-11T04:41:09.348Z,57.03
2019-05-11T04:41:43.705Z,60.85
2019-05-11T04:42:18.254Z,55.55
2019-05-11T04:42:55.743Z,54.15
2019-05-11T04:43:29.513Z,52.67
2019-05-11T04:44:03.776Z,59.83
2019-05-11T04:44:38.549Z,62.27
2019-05-11T04:45:13.490Z,55.75
2019-05-11T04:45:48.167Z,54.05
2019-05-11T04:46:22.462Z,53.15
2019-05-11T04:46:57.089Z,51.83
2019-05-11T04:47:31.837Z,58.50
2019-05-11T04:48:06.909Z,52.35
2019-05-11T04:48:45.233Z,48.60
2019-05-11T04:49:19.680Z,48.38
2019-05-11T04:49:54.266Z,50.55
2019-05-11T04:50:28.921Z,53.05
2019-05-11T04:51:03.145Z,59.38
2019-05-11T04:51:37.574Z,49.93
2019-05-11T04:52:12.023Z,48.92
2019-05-11T04:52:46.818Z,50.98
2019-05-11T04:53:20.970Z,46.53
2019-05-11T04:53:55.457Z,46.98
2019-05-11T04:54:30.134Z,46.80
2019-05-11T04:55:04.815Z,49.93
2019-05-11T04:55:38.960Z,47.15
2019-05-11T04:56:13.453Z,51.40
2019-05-11T04:56:48.109Z,50.48
2019-05-11T04:57:22.625Z,49.40
2019-05-11T04:57:56.846Z,45.23
2019-05-11T04:58:31.417Z,49.53
2019-05-11T04:59:05.854Z,49.65
2019-05-11T04:59:40.548Z,52.08
2019-05-11T05:00:15.463Z,46.85
2019-05-11T05:00:50.211Z,46.40
2019-05-11T05:01:24.726Z,45.35
2019-05-11T05:01:59.329Z,43.58
2019-05-11T05:02:33.462Z,46.37
2019-05-11T05:03:08.005Z,42.03
2019-05-11T05:03:47.436Z,41.23
2019-05-11T05:04:19.003Z,41.58
2019-05-11T05:04:53.150Z,44.15
2019-05-11T05:05:27.646Z,46.95
2019-05-11T05:06:20.850Z,41.80
2019-05-11T05:06:39.005Z,42.62
2019-05-11T05:07:16.495Z,43.33
2019-05-11T05:07:50.632Z,42.95
2019-05-11T05:08:26.628Z,41.90
2019-05-11T05:09:03.595Z,39.75
2019-05-11T05:09:42.545Z,37.95
2019-05-11T05:10:19.679Z,37.17
2019-05-11T05:10:52.423Z,39.48
2019-05-11T05:11:30.567Z,38.70
2019-05-11T05:12:02.827Z,36.83
2019-05-11T05:12:37.271Z,38.45
2019-05-11T05:13:11.938Z,38.58
2019-05-11T05:13:46.505Z,38.60
2019-05-11T05:14:20.712Z,36.10
2019-05-11T05:14:55.126Z,37.20
2019-05-11T05:15:29.797Z,35.08
2019-05-11T05:16:04.416Z,34.08
2019-05-11T05:16:38.655Z,35.30
2019-05-11T05:17:13.298Z,36.28
2019-05-11T05:17:47.964Z,36.98
2019-05-11T05:18:22.618Z,36.95
2019-05-11T05:18:56.716Z,34.30
2019-05-11T05:19:31.494Z,32.90
2019-05-11T05:20:06.649Z,34.48
2019-05-11T05:20:43.839Z,35.70
2019-05-11T05:21:16.830Z,34.03
2019-05-11T05:21:51.550Z,34.48
2019-05-11T05:22:28.021Z,35.43
2019-05-11T05:23:02.200Z,30.37
2019-05-11T05:23:36.426Z,29.70
2019-05-11T05:24:11.165Z,29.23
2019-05-11T05:24:45.668Z,29.07
2019-05-11T05:25:20.261Z,26.87
2019-05-11T05:25:54.776Z,27.80
2019-05-11T05:26:29.278Z,26.80
2019-05-11T05:27:03.797Z,25.70
2019-05-11T05:27:38.381Z,26.00
2019-05-11T05:28:12.840Z,25.90
2019-05-11T05:28:47.429Z,25.35
2019-05-11T05:29:21.881Z,25.88
2019-05-11T05:29:56.450Z,25.82
2019-05-11T05:30:30.746Z,22.98
2019-05-11T05:31:05.588Z,23.42
2019-05-11T05:31:40.318Z,22.07
2019-05-11T05:32:14.775Z,22.02
2019-05-11T05:32:49.199Z,22.27
2019-05-11T05:33:23.808Z,22.40
2019-05-11T05:34:01.340Z,22.40
2019-05-11T05:34:34.831Z,23.25
2019-05-11T05:35:09.659Z,23.25
2019-05-11T05:35:44.211Z,23.52
2019-05-11T05:36:18.628Z,22.95
2019-05-11T05:36:52.997Z,22.55
2019-05-11T05:37:27.208Z,22.55
2019-05-11T05:38:01.796Z,21.00
2019-05-11T05:38:36.287Z,21.30
2019-05-11T05:39:10.836Z,21.17
2019-05-11T05:39:44.926Z,21.30
2019-05-11T05:40:19.642Z,22.70
2019-05-11T05:40:54.249Z,21.55
2019-05-11T05:41:28.779Z,22.13
2019-05-11T05:42:02.990Z,20.30
2019-05-11T05:42:37.492Z,19.67
2019-05-11T05:43:25.548Z,19.75
2019-05-11T05:43:48.237Z,20.08
2019-05-11T05:44:22.450Z,19.02
2019-05-11T05:44:57.044Z,20.97
2019-05-11T05:45:31.679Z,19.82
2019-05-11T05:46:06.224Z,19.90
2019-05-11T05:46:40.399Z,19.85
2019-05-11T05:47:14.978Z,19.67
2019-05-11T05:47:49.487Z,20.08
2019-05-11T05:48:24.070Z,21.35
2019-05-11T05:48:58.205Z,21.02
2019-05-11T05:49:32.978Z,21.27
2019-05-11T05:50:07.887Z,20.82
2019-05-11T05:50:42.448Z,19.90
2019-05-11T05:51:16.743Z,21.05
2019-05-11T05:51:51.460Z,20.77
2019-05-11T05:52:25.919Z,20.55
2019-05-11T05:53:00.474Z,20.65
2019-05-11T05:53:34.676Z,21.23
2019-05-11T05:54:09.091Z,21.25
2019-05-11T05:54:43.598Z,21.70
2019-05-11T05:55:18.162Z,20.65
2019-05-11T05:55:52.652Z,20.27
2019-05-11T05:56:27.236Z,20.32
2019-05-11T05:57:01.928Z,20.60
2019-05-11T05:57:36.519Z,20.85
2019-05-11T05:58:10.668Z,20.10
2019-05-11T05:58:45.242Z,20.92
2019-05-11T05:59:19.761Z,20.10
2019-05-11T05:59:54.429Z,22.07
2019-05-11T06:00:28.797Z,21.40
2019-05-11T06:01:03.577Z,20.35
2019-05-11T06:01:37.957Z,21.35
2019-05-11T06:02:12.837Z,20.80
2019-05-11T06:02:47.149Z,21.77
2019-05-11T06:03:21.740Z,21.17
2019-05-11T06:03:56.375Z,21.82
2019-05-11T06:04:31.105Z,20.68
2019-05-11T06:05:05.570Z,20.12
2019-05-11T06:05:40.149Z,20.60
2019-05-11T06:06:14.696Z,21.15
2019-05-11T06:06:49.415Z,21.00
2019-05-11T06:07:23.715Z,21.25
2019-05-11T06:07:58.368Z,18.85
2019-05-11T06:08:32.999Z,19.80
2019-05-11T06:09:08.152Z,20.10
2019-05-11T06:09:42.372Z,19.52
2019-05-11T06:10:17.362Z,19.98
2019-05-11T06:10:52.047Z,19.55
2019-05-11T06:11:26.816Z,19.32
2019-05-11T06:12:00.943Z,18.75
2019-05-11T06:12:35.572Z,19.00
2019-05-11T06:13:10.019Z,18.32
2019-05-11T06:13:45.781Z,18.98
2019-05-11T06:14:20.321Z,18.55
2019-05-11T06:14:54.870Z,19.15
2019-05-11T06:15:29.538Z,18.82
2019-05-11T06:16:04.326Z,18.57
2019-05-11T06:16:38.563Z,18.90
2019-05-11T06:17:12.990Z,18.12
2019-05-11T06:17:47.846Z,18.98
2019-05-11T06:18:22.358Z,17.45
2019-05-11T06:18:56.479Z,17.07
2019-05-11T06:19:31.059Z,17.50
2019-05-11T06:20:06.386Z,17.42
2019-05-11T06:20:40.987Z,16.87
2019-05-11T06:21:15.309Z,16.87
2019-05-11T06:21:50.060Z,16.27
2019-05-11T06:22:24.609Z,16.70
2019-05-11T06:22:59.136Z,16.62
2019-05-11T06:23:33.454Z,16.10
2019-05-11T06:24:08.781Z,16.95
2019-05-11T06:24:43.778Z,16.10
2019-05-11T06:25:18.572Z,16.45
2019-05-11T06:25:52.997Z,16.48
2019-05-11T06:26:27.529Z,15.75
2019-05-11T06:27:02.036Z,15.18
2019-05-11T06:27:36.654Z,14.90
2019-05-11T06:28:10.991Z,14.33
2019-05-11T06:28:45.759Z,13.88
2019-05-11T06:29:21.908Z,14.38
2019-05-11T06:29:56.644Z,14.00
2019-05-11T06:30:31.257Z,13.75
2019-05-11T06:31:05.853Z,14.07
2019-05-11T06:31:40.401Z,14.23
2019-05-11T06:32:15.042Z,14.55
2019-05-11T06:32:49.255Z,13.83
2019-05-11T06:33:24.278Z,15.40
2019-05-11T06:33:58.832Z,15.03
2019-05-11T06:34:33.579Z,15.20
2019-05-11T06:35:08.768Z,14.85
2019-05-11T06:35:43.379Z,14.75
2019-05-11T06:36:17.980Z,14.47
2019-05-11T06:36:52.675Z,14.40
2019-05-11T06:37:26.886Z,14.28
2019-05-11T06:38:01.427Z,14.58
2019-05-11T06:38:36.144Z,14.95
2019-05-11T06:39:10.895Z,14.20
2019-05-11T06:39:45.219Z,14.70
2019-05-11T06:40:20.656Z,14.15
2019-05-11T06:40:55.309Z,13.40
2019-05-11T06:41:29.955Z,14.43
2019-05-11T06:42:04.038Z,14.28
2019-05-11T06:42:38.536Z,14.20
2019-05-11T06:43:13.106Z,14.65
2019-05-11T06:44:00.832Z,14.80
2019-05-11T06:44:23.541Z,15.30
2019-05-11T06:44:58.094Z,15.68
2019-05-11T06:45:32.846Z,15.32
2019-05-11T06:46:07.304Z,16.17
2019-05-11T06:46:41.487Z,14.10
2019-05-11T06:47:16.094Z,15.48
2019-05-11T06:47:50.702Z,14.90
2019-05-11T06:48:25.432Z,15.90
2019-05-11T06:48:59.617Z,15.63
2019-05-11T06:49:34.465Z,15.10
2019-05-11T06:50:09.457Z,14.23
2019-05-11T06:50:43.978Z,15.45
2019-05-11T06:51:18.148Z,15.53
2019-05-11T06:51:52.751Z,14.18
2019-05-11T06:52:27.537Z,13.68
2019-05-11T06:53:02.110Z,14.35
2019-05-11T06:53:36.417Z,13.95
2019-05-11T06:54:11.489Z,13.55
2019-05-11T06:54:45.977Z,14.30
2019-05-11T06:55:20.490Z,14.43
2019-05-11T06:55:54.978Z,14.93
2019-05-11T06:56:29.890Z,15.35
2019-05-11T06:57:04.654Z,14.55
2019-05-11T06:57:39.312Z,14.73
2019-05-11T06:58:13.706Z,15.28
2019-05-11T06:58:48.398Z,13.80
2019-05-11T06:59:23.153Z,13.38
2019-05-11T06:59:57.621Z,12.63
2019-05-11T07:00:31.853Z,13.88
2019-05-11T07:01:06.456Z,13.58
2019-05-11T07:01:40.962Z,12.80
2019-05-11T07:02:15.659Z,12.70
2019-05-11T07:02:49.886Z,12.63
2019-05-11T07:03:24.697Z,12.58
2019-05-11T07:03:59.311Z,12.25
2019-05-11T07:04:33.848Z,12.40
2019-05-11T07:05:08.085Z,11.83
2019-05-11T07:05:42.557Z,13.00
2019-05-11T07:06:17.177Z,11.10
2019-05-11T07:06:51.855Z,12.50
2019-05-11T07:07:26.259Z,11.35
2019-05-11T07:08:00.690Z,12.33
2019-05-11T07:08:35.295Z,11.90
2019-05-11T07:09:10.095Z,11.70
2019-05-11T07:09:44.140Z,11.60
2019-05-11T07:10:18.816Z,10.68
2019-05-11T07:10:53.310Z,10.60
2019-05-11T07:11:28.103Z,10.13
2019-05-11T07:12:02.499Z,10.43
2019-05-11T07:12:37.396Z,11.22
2019-05-11T07:13:11.958Z,10.90
2019-05-11T07:13:46.489Z,9.95
2019-05-11T07:14:21.552Z,10.30
2019-05-11T07:14:56.378Z,9.90
2019-05-11T07:15:30.949Z,10.40
2019-05-11T07:16:05.525Z,9.28
2019-05-11T07:16:39.840Z,8.90
2019-05-11T07:17:14.447Z,9.55
2019-05-11T07:17:49.205Z,9.63
2019-05-11T07:18:23.880Z,9.00
2019-05-11T07:18:57.946Z,9.65
2019-05-11T07:19:32.594Z,9.70
2019-05-11T07:20:07.701Z,9.33
2019-05-11T07:20:50.439Z,8.98
2019-05-11T07:21:18.104Z,8.73
2019-05-11T07:21:52.676Z,8.68
2019-05-11T07:22:27.097Z,9.18
2019-05-11T07:23:01.732Z,9.55
2019-05-11T07:23:36.200Z,9.65
2019-05-11T07:24:10.855Z,9.98
2019-05-11T07:24:45.334Z,9.60